Latest Weather Observations for Loxton

IDS60801

Issued at 11:51 pm CDT Saturday 16 February 2019 (issued every 10 minutes, with the page automatically refreshed every 10 minutes)

About weather observations | Map of weather stations | Latest weather observations for SA | Other Formats
Station Details ID: 024024 Name: LOXTON RESEARCH CENTRE Lat: -34.44 Lon: 140.60 Height: 30.1 m
Data from the previous 72 hours. | See also: Recent months at Loxton
Date/Time
CDT
Temp
°C
App
Temp
°C
Dew
Point
°C
Rel
Hum
%
Delta-T
°C
Wind Press
QNH
hPa
Press
MSL
hPa
Rain since
9am
mm
Dir  Spd
km/h
Gust
km/h
Spd
kts
Gust
kts
16/11:30pm 23.7 19.7 4.9 29 9.4 S 15 20 8 11 1014.2 1014.0 0.0
16/11:00pm 24.5 20.5 4.7 27 9.9 SSW 15 22 8 12 1014.2 1014.0 0.0
16/10:30pm 25.6 20.9 3.2 23 11.0 SSW 17 24 9 13 1014.2 1014.0 0.0
16/10:00pm 25.9 22.9 4.1 24 10.9 SSW 9 13 5 7 1014.0 1013.8 0.0
16/09:30pm 26.5 22.9 3.2 22 11.5 SSW 11 15 6 8 1013.9 1013.7 0.0
16/09:00pm 26.9 23.3 3.0 21 11.8 SW 11 13 6 7 1013.7 1013.5 0.0
16/08:30pm 27.4 24.1 4.3 22 11.7 SSW 11 13 6 7 1013.5 1013.3 0.0
16/08:00pm 28.7 26.3 5.2 22 12.2 SSW 7 9 4 5 1013.2 1013.0 0.0
16/07:30pm 31.6 28.9 3.9 17 14.3 SW 7 11 4 6 1013.0 1012.8 0.0
16/07:00pm 33.3 29.7 0.8 12 16.1 WSW 9 13 5 7 1012.9 1012.7 0.0
16/06:30pm 32.9 29.6 2.7 15 15.4 S 9 11 5 6 1012.9 1012.7 0.0
16/06:00pm 33.4 29.3 2.3 14 15.8 S 13 19 7 10 1012.9 1012.7 0.0
16/05:30pm 33.4 30.6 3.1 15 15.6 ESE 7 13 4 7 1013.0 1012.8 0.0
16/05:00pm 33.3 30.6 3.6 15 15.4 NE 7 11 4 6 1013.2 1013.0 0.0
16/04:30pm 33.7 30.0 2.2 13 16.0 WSW 11 20 6 11 1013.3 1013.1 0.0
16/04:00pm 33.5 29.9 2.9 14 15.7 WSW 11 24 6 13 1013.7 1013.5 0.0
16/03:30pm 32.5 29.3 2.9 15 15.1 S 9 15 5 8 1014.3 1014.1 0.0
16/03:00pm 32.4 29.3 3.4 16 14.9 S 9 19 5 10 1014.7 1014.5 0.0
16/02:30pm 32.8 29.7 3.6 16 15.1 S 9 20 5 11 1015.2 1015.0 0.0
16/02:00pm 31.8 28.3 3.6 17 14.5 SSW 11 19 6 10 1015.7 1015.5 0.0
16/01:30pm 31.6 29.7 6.8 21 13.4 NNW 6 7 3 4 1016.2 1016.0 0.0
16/01:00pm 30.4 27.4 6.1 21 12.9 SSW 11 15 6 8 1016.6 1016.4 0.0
16/12:30pm 29.7 27.5 6.0 22 12.5 NNW 7 13 4 7 1017.1 1016.9 0.0
16/12:00pm 28.7 27.1 8.7 28 11.0 SSE 7 13 4 7 1017.7 1017.5 0.0
16/11:30am 27.2 25.0 9.2 32 9.9 SSW 11 15 6 8 1018.1 1017.9 0.0
16/11:00am 25.6 24.4 10.3 38 8.5 SSW 7 11 4 6 1018.4 1018.2 0.0
16/10:30am 23.9 22.6 11.4 45 7.0 S 9 13 5 7 1018.6 1018.4 0.0
16/10:00am 22.5 21.4 11.8 50 6.0 SW 9 13 5 7 1018.9 1018.7 0.0
16/09:30am 20.3 19.1 11.6 57 4.8 SW 9 15 5 8 1018.9 1018.7 0.0
16/09:00am 18.2 16.6 11.4 64 3.7 SW 11 15 6 8 1018.8 1018.6 0.0
16/08:30am 17.3 15.3 11.6 69 3.1 SW 13 17 7 9 1018.9 1018.7 0.0
16/08:00am 16.2 14.9 11.4 73 2.6 SW 9 15 5 8 1018.6 1018.4 0.0
16/07:30am 15.6 14.7 11.3 75 2.3 SW 7 13 4 7 1018.3 1018.1 0.0
16/07:00am 15.2 14.5 11.3 77 2.1 SW 6 9 3 5 1017.9 1017.7 0.0
16/06:30am 15.0 15.4 11.3 78 2.0 CALM 0 0 0 0 1017.8 1017.6 0.0
16/06:00am 15.4 14.0 10.9 74 2.4 SW 9 13 5 7 1017.8 1017.6 0.0
16/05:30am 15.6 14.6 10.9 73 2.5 SW 7 9 4 5 1017.8 1017.6 0.0
16/05:00am 15.8 14.3 10.7 71 2.7 SW 9 13 5 7 1018.1 1017.9 0.0
16/04:30am 15.7 14.5 10.4 71 2.8 SW 7 11 4 6 1018.1 1017.9 0.0
16/04:00am 15.9 14.2 10.0 68 3.1 SW 9 13 5 7 1018.1 1017.9 0.0
16/03:30am 16.4 14.8 10.1 66 3.3 SW 9 13 5 7 1018.2 1018.0 0.0
16/03:00am 16.6 15.0 10.1 65 3.4 SW 9 11 5 6 1018.2 1018.0 0.0
16/02:30am 17.2 15.5 9.8 61 3.9 SSW 9 13 5 7 1018.4 1018.2 0.0
16/02:00am 17.9 16.1 9.3 57 4.5 SSW 9 11 5 6 1018.6 1018.4 0.0
16/01:30am 18.6 16.2 8.8 53 5.1 SSW 11 15 6 8 1019.1 1018.9 0.0
16/01:00am 19.4 17.3 8.2 48 5.8 SSW 9 15 5 8 1019.4 1019.2 0.0
16/12:30am 20.1 17.5 7.9 45 6.3 SSW 11 17 6 9 1019.5 1019.3 0.0
16/12:00am 20.9 17.5 7.7 42 6.8 SSW 15 20 8 11 1019.4 1019.2 0.0
 
Date/Time
CDT
Temp
°C
App
Temp
°C
Dew
Point
°C
Rel
Hum
%
Delta-T
°C
Wind Press
QNH
hPa
Press
MSL
hPa
Rain since
9am
mm
Dir  Spd
km/h
Gust
km/h
Spd
kts
Gust
kts
15/11:30pm 21.8 18.0 7.7 40 7.3 SSW 17 26 9 14 1019.3 1019.1 0.0
15/11:00pm 22.5 18.7 7.7 38 7.7 S 17 26 9 14 1019.4 1019.2 0.0
15/10:30pm 23.5 19.4 7.7 36 8.3 S 19 26 10 14 1019.4 1019.2 0.0
15/10:00pm 24.5 20.6 7.3 33 9.0 S 17 26 9 14 1019.2 1019.0 0.0
15/09:30pm 24.9 21.0 5.4 28 9.9 SSW 15 26 8 14 1018.9 1018.7 0.0
15/09:00pm 20.6 19.0 10.2 51 5.6 S 9 11 5 6 1018.3 1018.1 0.0
15/08:30pm 22.9 22.1 11.2 47 6.5 S 6 7 3 4 1018.0 1017.8 0.0
15/08:00pm 26.6 25.1 9.3 33 9.5 SSE 7 11 4 6 1017.6 1017.4 0.0
15/07:30pm 29.9 29.1 6.4 22 12.5 CALM 0 6 0 3 1017.3 1017.1 0.0
15/07:00pm 30.8 27.9 2.8 17 14.1 S 7 11 4 6 1017.3 1017.1 0.0
15/06:30pm 30.9 28.4 1.4 15 14.5 SSE 4 13 2 7 1017.4 1017.2 0.0
15/06:00pm 31.3 28.2 0.3 13 15.0 SW 6 11 3 6 1017.5 1017.3 0.0
15/05:30pm 31.1 27.6 1.1 14 14.7 WSW 9 15 5 8 1017.7 1017.5 0.0
15/05:00pm 31.5 28.6 1.7 15 14.8 SSW 6 9 3 5 1017.7 1017.5 0.0
15/04:30pm 30.9 28.0 4.4 18 13.7 ESE 9 15 5 8 1018.0 1017.8 0.0
15/04:00pm 30.9 28.2 3.7 18 13.9 S 7 13 4 7 1018.3 1018.1 0.0
15/03:30pm 30.4 26.4 2.6 17 13.9 SE 13 20 7 11 1018.8 1018.6 0.0
15/03:00pm 29.9 27.0 4.8 20 13.0 E 9 13 5 7 1019.5 1019.3 0.0
15/02:30pm 29.0 26.5 5.0 21 12.4 WSW 7 13 4 7 1020.0 1019.9 0.0
15/02:00pm 28.8 26.0 5.2 22 12.2 SE 9 17 5 9 1020.5 1020.4 0.0
15/01:30pm 27.8 25.5 5.6 24 11.5 SSE 7 15 4 8 1021.2 1021.1 0.0
15/01:00pm 27.3 24.7 5.9 25 11.1 ESE 9 15 5 8 1021.5 1021.4 0.0
15/12:30pm 26.9 24.8 6.7 27 10.6 NNE 7 11 4 6 1022.0 1021.9 0.0
15/12:00pm 26.4 24.0 7.0 29 10.2 NNE 9 13 5 7 1022.4 1022.3 0.0
15/11:30am 25.3 23.4 7.7 32 9.3 NE 7 13 4 7 1022.9 1022.8 0.0
15/11:00am 23.9 22.8 9.8 40 7.7 NE 6 11 3 6 1023.2 1023.1 0.0
15/10:30am 22.8 21.6 10.4 45 6.8 ENE 7 11 4 6 1023.5 1023.4 0.0
15/10:00am 21.2 20.3 10.8 51 5.7 ESE 6 11 3 6 1023.6 1023.5 0.0
15/09:30am 19.7 18.2 10.6 55 4.9 E 9 13 5 7 1023.5 1023.4 0.0
15/09:00am 18.3 16.1 10.9 62 4.0 ESE 13 17 7 9 1023.2 1023.1 0.0
15/08:30am 16.8 14.2 10.8 67 3.2 ESE 15 19 8 10 1022.8 1022.7 0.0
15/08:00am 15.2 13.3 10.4 73 2.5 SE 11 17 6 9 1022.6 1022.5 0.0
15/07:30am 13.4 11.7 9.9 79 1.8 SSE 9 13 5 7 1022.6 1022.5 0.0
15/07:00am 11.0 9.7 9.2 89 0.9 S 6 7 3 4 1022.3 1022.2 0.0
15/06:30am 11.5 10.2 9.3 86 1.1 SSE 6 7 3 4 1022.0 1021.9 0.0
15/06:00am 12.6 11.5 9.9 83 1.4 SSW 6 7 3 4 1022.1 1022.0 0.0
15/05:30am 13.2 12.1 9.9 80 1.7 SSW 6 9 3 5 1021.9 1021.8 0.0
15/05:00am 13.8 12.1 9.7 76 2.1 SSE 9 15 5 8 1021.6 1021.5 0.0
15/04:30am 13.9 11.4 9.6 75 2.2 SSE 13 15 7 8 1021.4 1021.3 0.0
15/04:00am 14.4 12.3 9.7 73 2.4 SSE 11 15 6 8 1021.5 1021.4 0.0
15/03:30am 14.9 12.4 9.7 71 2.7 S 13 17 7 9 1021.5 1021.4 0.0
15/03:00am 15.2 13.1 9.6 69 2.9 SSE 11 15 6 8 1021.6 1021.5 0.0
15/02:30am 15.6 13.0 9.4 66 3.2 S 13 17 7 9 1021.5 1021.4 0.0
15/02:00am 16.2 13.2 9.2 63 3.6 S 15 20 8 11 1021.5 1021.4 0.0
15/01:30am 16.7 13.7 9.1 61 3.9 S 15 20 8 11 1021.5 1021.4 0.0
15/01:00am 17.3 14.3 9.2 59 4.2 S 15 24 8 13 1021.4 1021.3 0.0
15/12:30am 18.1 14.7 9.1 55 4.7 S 17 24 9 13 1021.3 1021.2 0.0
15/12:00am 18.7 15.6 8.7 52 5.2 S 15 20 8 11 1021.3 1021.2 0.0
 
Date/Time
CDT
Temp
°C
App
Temp
°C
Dew
Point
°C
Rel
Hum
%
Delta-T
°C
Wind Press
QNH
hPa
Press
MSL
hPa
Rain since
9am
mm
Dir  Spd
km/h
Gust
km/h
Spd
kts
Gust
kts
14/11:30pm 19.4 15.8 8.4 49 5.7 S 17 24 9 13 1021.2 1021.1 0.0
14/11:00pm 19.9 16.2 7.8 45 6.2 S 17 24 9 13 1021.2 1021.1 0.0
14/10:30pm 20.2 16.6 6.7 41 6.8 S 15 20 8 11 1021.1 1021.0 0.0
14/10:00pm 17.6 15.5 8.2 54 4.8 S 9 11 5 6 1021.0 1020.9 0.0
14/09:30pm 17.5 17.5 11.0 65 3.5 S 2 9 1 5 1020.8 1020.7 0.0
14/09:00pm 18.4 18.5 10.1 58 4.4 CALM 0 2 0 1 1020.5 1020.4 0.0
14/08:30pm 19.8 20.1 11.0 57 4.8 CALM 0 0 0 0 1019.9 1019.8 0.0
14/08:00pm 23.0 21.2 8.0 38 7.9 S 7 9 4 5 1019.7 1019.5 0.0
14/07:30pm 24.7 21.9 6.8 31 9.3 SSE 11 17 6 9 1019.5 1019.3 0.0
14/07:00pm 26.0 23.4 6.1 28 10.3 S 9 15 5 8 1019.3 1019.1 0.0
14/06:30pm 26.4 23.4 6.2 27 10.5 S 11 19 6 10 1019.1 1018.9 0.0
14/06:00pm 26.1 22.6 5.3 26 10.6 S 13 20 7 11 1019.1 1018.9 0.0
14/05:30pm 26.0 22.5 5.5 27 10.5 SSW 13 22 7 12 1019.2 1019.0 0.0
14/05:00pm 25.9 22.8 5.6 27 10.4 SSE 11 17 6 9 1019.2 1019.0 0.0
14/04:30pm 25.7 22.6 5.5 27 10.3 S 11 20 6 11 1019.3 1019.1 0.0
14/04:00pm 26.2 22.3 5.5 26 10.6 SSW 15 26 8 14 1019.6 1019.4 0.0
14/03:30pm 25.3 22.0 4.5 26 10.4 SSW 11 24 6 13 1020.0 1019.9 0.0
14/03:00pm 24.4 21.7 5.4 29 9.6 SE 9 17 5 9 1020.4 1020.3 0.0
14/02:30pm 24.5 22.2 5.9 30 9.5 NNW 7 15 4 8 1020.5 1020.4 0.0
14/02:00pm 23.2 20.0 5.2 31 9.0 SE 11 20 6 11 1020.9 1020.8 0.0
14/01:30pm 23.2 20.5 5.8 32 8.8 NE 9 17 5 9 1020.9 1020.8 0.0
14/01:00pm 21.5 18.8 5.6 35 7.9 NE 9 17 5 9 1021.1 1021.0 0.0
14/12:30pm 21.0 18.7 5.7 37 7.6 E 7 17 4 9 1021.5 1021.4 0.0
14/12:00pm 21.0 18.8 6.3 38 7.4 N 7 17 4 9 1021.8 1021.7 0.0
14/11:30am 19.5 16.8 5.6 40 6.8 SSE 9 17 5 9 1022.2 1022.1 0.0
14/11:00am 19.1 15.7 5.9 42 6.5 SE 13 22 7 12 1022.3 1022.2 0.0
14/10:30am 18.3 15.7 6.3 45 5.9 ESE 9 15 5 8 1022.3 1022.2 0.0
14/10:00am 17.9 15.0 6.3 46 5.7 SSE 11 20 6 11 1022.3 1022.2 0.0
14/09:30am 17.6 14.3 6.4 47 5.5 SE 13 22 7 12 1022.2 1022.1 0.0
14/09:00am 16.3 13.8 6.5 52 4.8 ESE 9 13 5 7 1022.2 1022.1 0.0
14/08:30am 14.3 12.3 6.4 59 3.8 SSE 6 7 3 4 1022.2 1022.1 0.0
14/08:00am 12.1 11.2 5.9 66 2.9 CALM 0 0 0 0 1021.8 1021.7 0.0
14/07:30am 9.5 8.4 5.3 75 1.9 CALM 0 0 0 0 1021.4 1021.3 0.0
14/07:00am 6.9 5.8 5.1 88 0.8 CALM 0 0 0 0 1021.0 1020.9 0.0
14/06:30am 7.2 6.1 5.2 87 0.9 CALM 0 0 0 0 1020.7 1020.6 0.0
14/06:00am 7.9 5.7 5.2 83 1.2 SSE 6 7 3 4 1020.5 1020.4 0.0
14/05:30am 9.3 6.9 5.3 76 1.8 S 7 9 4 5 1020.2 1020.1 0.0
14/05:00am 10.0 7.2 5.1 71 2.2 S 9 13 5 7 1019.9 1019.8 0.0
14/04:30am 10.3 7.5 5.2 70 2.3 S 9 11 5 6 1019.7 1019.5 0.0
14/04:00am 11.2 8.0 5.3 67 2.7 S 11 15 6 8 1019.6 1019.4 0.0
14/03:30am 11.8 8.6 5.3 64 3.0 S 11 17 6 9 1019.6 1019.4 0.0
14/03:00am 12.1 8.9 5.1 62 3.2 S 11 15 6 8 1019.3 1019.1 0.0
14/02:30am 12.4 8.7 4.7 59 3.5 S 13 17 7 9 1019.2 1019.0 0.0
14/02:00am 12.6 8.9 4.5 58 3.7 S 13 17 7 9 1019.2 1019.0 0.0
14/01:30am 13.4 9.7 4.2 53 4.2 SSW 13 19 7 10 1019.3 1019.1 0.0
14/01:00am 13.9 10.1 3.7 50 4.6 SSW 13 17 7 9 1019.3 1019.1 0.0
14/12:30am 13.6 10.2 3.9 52 4.4 SSW 11 17 6 9 1019.3 1019.1 0.0
14/12:00am 14.2 10.8 3.9 50 4.7 SSW 11 15 6 8 1019.2 1019.0 0.0

Other Formats:

Comma delimited format used in spreadsheet applications
http://www.bom.gov.au/fwo/IDS60801/IDS60801.94682.axf

JavaScript Object Notation format (JSON) in row-major order
http://www.bom.gov.au/fwo/IDS60801/IDS60801.94682.json